createdAt,value
2019-03-16T00:01:07.771Z,4.83
2019-03-16T00:03:33.302Z,4.67
2019-03-16T00:05:58.867Z,6.03
2019-03-16T00:08:24.367Z,4.77
2019-03-16T00:10:49.919Z,5.70
2019-03-16T00:13:16.261Z,4.10
2019-03-16T00:15:42.204Z,4.40
2019-03-16T00:18:08.044Z,6.80
2019-03-16T00:20:33.613Z,6.40
2019-03-16T00:22:59.143Z,5.90
2019-03-16T00:25:24.672Z,4.60
2019-03-16T00:27:50.253Z,5.73
2019-03-16T00:30:15.926Z,5.13
2019-03-16T00:32:41.576Z,4.83
2019-03-16T00:35:07.128Z,5.87
2019-03-16T00:37:32.681Z,5.47
2019-03-16T00:39:58.220Z,5.07
2019-03-16T00:42:23.783Z,5.53
2019-03-16T00:44:49.356Z,5.20
2019-03-16T00:47:14.994Z,5.20
2019-03-16T00:49:40.535Z,4.93
2019-03-16T00:52:06.075Z,4.50
2019-03-16T00:54:31.652Z,7.40
2019-03-16T00:56:57.201Z,6.03
2019-03-16T00:59:22.775Z,4.90
2019-03-16T01:01:48.317Z,6.23
2019-03-16T01:04:13.983Z,5.70
2019-03-16T01:06:39.552Z,5.03
2019-03-16T01:09:06.127Z,5.20
2019-03-16T01:11:31.806Z,5.37
2019-03-16T01:13:57.375Z,5.70
2019-03-16T01:16:22.933Z,5.20
2019-03-16T01:18:48.508Z,5.10
2019-03-16T01:21:14.511Z,5.90
2019-03-16T01:23:40.167Z,6.47
2019-03-16T01:26:06.934Z,4.83
2019-03-16T01:28:32.545Z,4.67
2019-03-16T01:30:58.124Z,5.57
2019-03-16T01:33:23.660Z,6.90
2019-03-16T01:35:49.221Z,5.37
2019-03-16T01:38:14.732Z,5.83
2019-03-16T01:40:40.367Z,4.93
2019-03-16T01:43:06.375Z,6.10
2019-03-16T01:45:31.923Z,5.63
2019-03-16T01:47:57.558Z,5.60
2019-03-16T01:50:23.104Z,5.73
2019-03-16T01:52:48.648Z,5.83
2019-03-16T01:55:14.239Z,4.67
2019-03-16T01:57:40.917Z,4.93
2019-03-16T02:00:10.880Z,5.27
2019-03-16T02:02:36.423Z,5.63
2019-03-16T02:05:02.263Z,5.53
2019-03-16T02:07:28.043Z,5.17
2019-03-16T02:09:53.621Z,5.20
2019-03-16T02:12:19.332Z,5.53
2019-03-16T02:14:45.024Z,5.40
2019-03-16T02:17:10.791Z,4.80
2019-03-16T02:19:36.311Z,5.30
2019-03-16T02:22:01.844Z,5.60
2019-03-16T02:24:27.367Z,5.40
2019-03-16T02:26:52.898Z,6.10
2019-03-16T02:29:18.435Z,4.30
2019-03-16T02:31:44.071Z,6.47
2019-03-16T02:34:09.872Z,5.40
2019-03-16T02:36:35.412Z,7.83
2019-03-16T02:39:00.988Z,5.80
2019-03-16T02:41:29.512Z,5.20
2019-03-16T02:43:57.809Z,5.60
2019-03-16T02:46:23.388Z,5.13
2019-03-16T02:48:49.238Z,5.23
2019-03-16T02:51:14.803Z,4.57
2019-03-16T02:53:40.344Z,5.20
2019-03-16T02:56:06.190Z,4.97
2019-03-16T02:58:32.655Z,6.50
2019-03-16T03:00:58.216Z,5.93
2019-03-16T03:03:29.662Z,5.90
2019-03-16T03:05:51.263Z,4.57
2019-03-16T03:08:17.024Z,6.17
2019-03-16T03:10:42.591Z,5.10
2019-03-16T03:13:08.130Z,6.10
2019-03-16T03:15:33.663Z,5.77
2019-03-16T03:17:59.429Z,5.90
2019-03-16T03:20:25.286Z,4.73
2019-03-16T03:22:50.928Z,5.30
2019-03-16T03:25:16.459Z,6.80
2019-03-16T03:27:42.010Z,5.70
2019-03-16T03:30:09.453Z,4.50
2019-03-16T03:32:34.961Z,5.00
2019-03-16T03:35:01.072Z,5.10
2019-03-16T03:37:26.868Z,6.30
2019-03-16T03:39:52.472Z,5.87
2019-03-16T03:42:18.087Z,6.10
2019-03-16T03:44:43.756Z,5.13
2019-03-16T03:47:09.393Z,6.70
2019-03-16T03:49:35.037Z,4.63
2019-03-16T03:52:00.561Z,4.90
2019-03-16T03:54:26.093Z,5.73
2019-03-16T03:56:51.627Z,5.23
2019-03-16T03:59:17.295Z,6.20
2019-03-16T04:01:42.936Z,6.40
2019-03-16T04:04:15.802Z,5.00
2019-03-16T04:06:35.899Z,5.23
2019-03-16T04:09:01.573Z,4.93
2019-03-16T04:11:27.088Z,6.07
2019-03-16T04:13:52.614Z,5.90
2019-03-16T04:16:18.203Z,7.50
2019-03-16T04:18:43.712Z,5.97
2019-03-16T04:21:09.240Z,5.50
2019-03-16T04:23:34.804Z,5.03
2019-03-16T04:26:00.496Z,4.63
2019-03-16T04:28:26.012Z,5.10
2019-03-16T04:30:51.807Z,5.83
2019-03-16T04:33:17.346Z,7.10
2019-03-16T04:35:42.867Z,5.60
2019-03-16T04:38:09.403Z,6.60
2019-03-16T04:40:34.924Z,5.90
2019-03-16T04:43:00.439Z,6.27
2019-03-16T04:45:25.955Z,5.20
2019-03-16T04:47:51.631Z,5.07
2019-03-16T04:50:17.143Z,5.00
2019-03-16T04:52:42.655Z,6.17
2019-03-16T04:55:08.222Z,5.77
2019-03-16T04:57:33.798Z,7.10
2019-03-16T04:59:59.310Z,5.63
2019-03-16T05:02:24.985Z,4.90
2019-03-16T05:04:50.555Z,5.20
2019-03-16T05:07:16.085Z,5.60
2019-03-16T05:09:41.610Z,4.50
2019-03-16T05:12:07.126Z,4.60
2019-03-16T05:14:32.643Z,4.77
2019-03-16T05:16:58.290Z,5.33
2019-03-16T05:19:23.859Z,5.67
2019-03-16T05:21:49.387Z,5.97
2019-03-16T05:24:15.136Z,5.67
2019-03-16T05:26:40.652Z,5.53
2019-03-16T05:29:06.167Z,5.30
2019-03-16T05:31:31.701Z,5.60
2019-03-16T05:33:57.572Z,4.73
2019-03-16T05:36:23.183Z,5.10
2019-03-16T05:38:48.706Z,4.87
2019-03-16T05:41:14.233Z,4.70
2019-03-16T05:43:39.758Z,5.03
2019-03-16T05:46:05.384Z,5.30
2019-03-16T05:48:30.919Z,4.67
2019-03-16T05:50:57.618Z,4.47
2019-03-16T05:53:23.396Z,5.20
2019-03-16T05:55:48.949Z,5.10
2019-03-16T05:58:15.559Z,5.83
2019-03-16T06:00:41.075Z,4.80
2019-03-16T06:03:06.611Z,4.33
2019-03-16T06:05:32.346Z,5.47
2019-03-16T06:07:57.976Z,5.77
2019-03-16T06:10:23.510Z,4.90
2019-03-16T06:12:49.024Z,5.17
2019-03-16T06:15:14.549Z,5.47
2019-03-16T06:17:40.073Z,5.80
2019-03-16T06:20:07.313Z,4.67
2019-03-16T06:22:32.829Z,4.63
2019-03-16T06:24:58.398Z,5.07
2019-03-16T06:27:23.920Z,4.13
2019-03-16T06:29:49.451Z,4.07
2019-03-16T06:32:15.082Z,4.77
2019-03-16T06:34:40.607Z,5.00
2019-03-16T06:37:06.344Z,4.70
2019-03-16T06:39:31.883Z,4.20
2019-03-16T06:41:57.954Z,4.10
2019-03-16T06:44:23.706Z,3.27
2019-03-16T06:46:49.246Z,5.23
2019-03-16T06:49:15.320Z,5.30
2019-03-16T06:51:41.105Z,4.60
2019-03-16T06:54:06.632Z,4.03
2019-03-16T06:56:32.142Z,4.30
2019-03-16T06:58:58.549Z,4.00
2019-03-16T07:01:24.162Z,4.63
2019-03-16T07:03:49.689Z,4.23
2019-03-16T07:06:15.213Z,4.87
2019-03-16T07:08:41.079Z,4.70
2019-03-16T07:11:08.520Z,4.80
2019-03-16T07:13:35.199Z,4.13
2019-03-16T07:16:00.748Z,4.27
2019-03-16T07:18:26.281Z,4.03
2019-03-16T07:20:51.813Z,4.00
2019-03-16T07:23:17.428Z,3.70
2019-03-16T07:25:43.319Z,4.30
2019-03-16T07:28:08.941Z,4.93
2019-03-16T07:30:37.263Z,4.20
2019-03-16T07:33:02.981Z,4.60
2019-03-16T07:35:28.507Z,3.97
2019-03-16T07:37:54.023Z,4.00
2019-03-16T07:40:19.684Z,4.13
2019-03-16T07:42:45.194Z,4.63
2019-03-16T07:45:11.219Z,4.70
2019-03-16T07:47:36.847Z,4.70
2019-03-16T07:50:03.622Z,4.80
2019-03-16T07:52:30.251Z,5.13
2019-03-16T07:54:55.789Z,5.30
2019-03-16T07:57:21.563Z,4.60
2019-03-16T07:59:47.356Z,4.30
2019-03-16T08:02:13.087Z,4.13
2019-03-16T08:04:38.609Z,4.00
2019-03-16T08:07:04.375Z,4.70
2019-03-16T08:09:30.158Z,4.50
2019-03-16T08:11:55.682Z,4.00
2019-03-16T08:14:21.202Z,5.40
2019-03-16T08:16:46.743Z,5.07
2019-03-16T08:19:12.254Z,4.97
2019-03-16T08:21:37.781Z,5.10
2019-03-16T08:24:03.487Z,4.20
2019-03-16T08:26:29.031Z,4.30
2019-03-16T08:28:54.548Z,4.33
2019-03-16T08:31:20.151Z,4.60
2019-03-16T08:33:45.701Z,4.90
2019-03-16T08:36:11.204Z,5.17
2019-03-16T08:38:37.831Z,3.80
2019-03-16T08:41:03.381Z,4.17
2019-03-16T08:43:28.935Z,4.00
2019-03-16T08:45:54.790Z,4.17
2019-03-16T08:48:22.964Z,4.40
2019-03-16T08:50:49.900Z,4.80
2019-03-16T08:53:15.121Z,4.23
2019-03-16T08:55:40.636Z,4.40
2019-03-16T08:58:06.590Z,4.47
2019-03-16T09:00:32.219Z,4.73
2019-03-16T09:02:58.073Z,5.30
2019-03-16T09:05:24.148Z,4.60
2019-03-16T09:07:49.672Z,4.40
2019-03-16T09:10:15.233Z,4.30
2019-03-16T09:12:40.764Z,3.80
2019-03-16T09:15:08.207Z,4.17
2019-03-16T09:17:39.974Z,3.53
2019-03-16T09:20:06.821Z,3.73
2019-03-16T09:22:32.423Z,3.50
2019-03-16T09:24:57.987Z,3.23
2019-03-16T09:27:31.223Z,3.17
2019-03-16T09:29:51.113Z,3.73
2019-03-16T09:32:16.622Z,3.87
2019-03-16T09:34:42.165Z,3.53
2019-03-16T09:37:07.888Z,3.77
2019-03-16T09:39:33.423Z,3.80
2019-03-16T09:41:59.113Z,3.50
2019-03-16T09:44:24.667Z,3.10
2019-03-16T09:46:51.470Z,3.20
2019-03-16T09:49:16.996Z,4.70
2019-03-16T09:51:42.559Z,13.30
2019-03-16T09:54:08.214Z,3.07
2019-03-16T09:56:33.827Z,2.40
2019-03-16T09:58:59.610Z,2.63
2019-03-16T10:01:25.395Z,2.43
2019-03-16T10:03:50.940Z,2.70
2019-03-16T10:06:16.491Z,2.80
2019-03-16T10:08:43.355Z,3.10
2019-03-16T10:11:09.989Z,2.43
2019-03-16T10:13:35.599Z,2.90
2019-03-16T10:16:01.282Z,3.50
2019-03-16T10:18:28.965Z,3.27
2019-03-16T10:20:54.555Z,3.27
2019-03-16T10:23:20.103Z,2.80
2019-03-16T10:25:45.635Z,2.87
2019-03-16T10:28:12.325Z,2.73
2019-03-16T10:30:37.833Z,2.80
2019-03-16T10:33:03.351Z,2.80
2019-03-16T10:35:28.985Z,3.30
2019-03-16T10:37:54.483Z,2.70
2019-03-16T10:40:20.032Z,2.90
2019-03-16T10:42:45.605Z,3.10
2019-03-16T10:45:11.115Z,2.40
2019-03-16T10:47:36.670Z,2.67
2019-03-16T10:50:03.020Z,2.60
2019-03-16T10:52:28.633Z,2.50
2019-03-16T10:54:54.175Z,3.07
2019-03-16T10:57:19.692Z,2.93
2019-03-16T10:59:45.272Z,2.97
2019-03-16T11:02:10.806Z,3.10
2019-03-16T11:04:36.366Z,2.63
2019-03-16T11:07:01.895Z,3.77
2019-03-16T11:09:27.457Z,2.57
2019-03-16T11:11:52.969Z,3.17
2019-03-16T11:14:18.496Z,2.30
2019-03-16T11:16:44.026Z,2.57
2019-03-16T11:19:09.583Z,3.33
2019-03-16T11:21:35.105Z,1.73
2019-03-16T11:24:02.531Z,2.30
2019-03-16T11:26:28.057Z,2.23
2019-03-16T11:28:54.596Z,2.43
2019-03-16T11:31:20.160Z,1.87
2019-03-16T11:33:48.213Z,1.67
2019-03-16T11:36:13.604Z,1.50
2019-03-16T11:38:39.295Z,2.10
2019-03-16T11:41:05.047Z,1.97
2019-03-16T11:43:30.572Z,1.80
2019-03-16T11:45:56.091Z,2.20
2019-03-16T11:48:21.604Z,2.00
2019-03-16T11:50:48.856Z,2.07
2019-03-16T11:53:14.660Z,1.80
2019-03-16T11:55:40.462Z,1.70
2019-03-16T11:58:06.011Z,1.43
2019-03-16T12:00:31.527Z,1.40
2019-03-16T12:02:57.050Z,1.80
2019-03-16T12:05:22.600Z,1.47
2019-03-16T12:07:48.308Z,1.40
2019-03-16T12:10:14.279Z,1.67
2019-03-16T12:12:40.907Z,1.40
2019-03-16T12:15:07.243Z,1.67
2019-03-16T12:17:32.759Z,1.77
2019-03-16T12:19:58.288Z,1.27
2019-03-16T12:22:23.882Z,1.30
2019-03-16T12:24:49.404Z,1.60
2019-03-16T12:27:14.932Z,1.30
2019-03-16T12:29:40.730Z,1.23
2019-03-16T12:32:06.257Z,1.37
2019-03-16T12:34:31.779Z,1.30
2019-03-16T12:36:57.315Z,1.47
2019-03-16T12:39:22.881Z,1.40
2019-03-16T12:41:48.677Z,1.87
2019-03-16T12:44:14.190Z,1.30
2019-03-16T12:46:39.711Z,1.70
2019-03-16T12:49:05.243Z,1.60
2019-03-16T12:51:30.747Z,1.27
2019-03-16T12:53:56.303Z,1.60
2019-03-16T12:56:21.852Z,1.40
2019-03-16T12:58:47.419Z,1.53
2019-03-16T13:01:12.976Z,1.30
2019-03-16T13:03:38.867Z,1.20
2019-03-16T13:06:04.400Z,1.20
2019-03-16T13:08:30.331Z,1.47
2019-03-16T13:10:55.863Z,1.47
2019-03-16T13:13:21.424Z,1.23
2019-03-16T13:15:46.962Z,2.40
2019-03-16T13:18:12.615Z,1.50
2019-03-16T13:20:38.243Z,1.70
2019-03-16T13:23:03.766Z,1.63
2019-03-16T13:25:29.315Z,2.20
2019-03-16T13:27:54.941Z,1.20
2019-03-16T13:30:20.504Z,1.30
2019-03-16T13:32:46.155Z,1.30
2019-03-16T13:35:12.024Z,1.53
2019-03-16T13:37:37.651Z,2.03
2019-03-16T13:40:05.391Z,1.87
2019-03-16T13:42:31.034Z,1.40
2019-03-16T13:44:56.588Z,1.40
2019-03-16T13:47:22.202Z,1.40
2019-03-16T13:49:47.823Z,1.57
2019-03-16T13:52:14.355Z,1.50
2019-03-16T13:54:39.884Z,1.40
2019-03-16T13:57:05.445Z,1.60
2019-03-16T13:59:30.976Z,1.67
2019-03-16T14:01:56.868Z,1.90
2019-03-16T14:04:22.827Z,1.77
2019-03-16T14:06:48.338Z,2.60
2019-03-16T14:09:14.297Z,1.97
2019-03-16T14:11:41.293Z,1.50
2019-03-16T14:14:07.335Z,2.40
2019-03-16T14:16:33.019Z,1.80
2019-03-16T14:18:59.107Z,2.10
2019-03-16T14:21:24.636Z,2.10
2019-03-16T14:23:50.162Z,2.30
2019-03-16T14:26:15.671Z,2.10
2019-03-16T14:28:41.232Z,2.40
2019-03-16T14:31:06.786Z,2.13
2019-03-16T14:33:32.477Z,2.50
2019-03-16T14:35:58.336Z,2.63
2019-03-16T14:38:24.009Z,2.60
2019-03-16T14:40:49.551Z,2.80
2019-03-16T14:43:15.096Z,3.30
2019-03-16T14:45:40.657Z,3.03
2019-03-16T14:48:06.254Z,3.07
2019-03-16T14:50:31.934Z,2.93
2019-03-16T14:52:57.608Z,3.67
2019-03-16T14:55:23.150Z,3.07
2019-03-16T14:57:51.359Z,3.00
2019-03-16T15:00:17.415Z,3.20
2019-03-16T15:02:46.582Z,3.53
2019-03-16T15:05:13.835Z,3.80
2019-03-16T15:07:39.448Z,4.27
2019-03-16T15:10:06.551Z,4.07
2019-03-16T15:12:32.478Z,4.20
2019-03-16T15:14:58.303Z,5.07
2019-03-16T15:17:25.519Z,6.70
2019-03-16T15:19:51.350Z,7.17
2019-03-16T15:22:17.961Z,8.00
2019-03-16T15:24:43.506Z,8.37
2019-03-16T15:27:15.891Z,8.97
2019-03-16T15:29:43.200Z,8.93
2019-03-16T15:32:11.634Z,9.73
2019-03-16T15:34:37.329Z,10.67
2019-03-16T15:37:05.916Z,10.97
2019-03-16T15:39:31.597Z,9.43
2019-03-16T15:41:57.247Z,10.27
2019-03-16T15:44:27.779Z,9.70
2019-03-16T15:46:53.445Z,9.43
2019-03-16T15:49:23.619Z,10.73
2019-03-16T15:52:00.119Z,10.60
2019-03-16T15:54:28.959Z,9.80
2019-03-16T15:56:55.646Z,10.93
2019-03-16T15:59:21.824Z,9.67
2019-03-16T16:01:47.639Z,9.40
2019-03-16T16:04:13.733Z,10.07
2019-03-16T16:06:42.459Z,10.60
2019-03-16T16:09:10.013Z,10.57
2019-03-16T16:11:37.711Z,10.50
2019-03-16T16:14:07.535Z,11.10
2019-03-16T16:16:34.225Z,13.17
2019-03-16T16:19:01.675Z,11.67
2019-03-16T16:21:38.068Z,12.70
2019-03-16T16:24:04.041Z,12.13
2019-03-16T16:26:29.703Z,12.43
2019-03-16T16:28:56.048Z,11.03
2019-03-16T16:31:25.981Z,12.10
2019-03-16T16:33:50.306Z,12.30
2019-03-16T16:36:20.061Z,12.83
2019-03-16T16:38:45.863Z,12.40
2019-03-16T16:41:11.593Z,11.00
2019-03-16T16:43:41.338Z,11.67
2019-03-16T16:46:09.843Z,11.13
2019-03-16T16:48:35.404Z,12.37
2019-03-16T16:51:03.347Z,11.60
2019-03-16T16:53:31.528Z,13.07
2019-03-16T16:55:58.416Z,11.33
2019-03-16T16:58:24.086Z,11.70
2019-03-16T17:00:49.721Z,13.30
2019-03-16T17:03:29.340Z,11.60
2019-03-16T17:05:59.537Z,10.77
2019-03-16T17:08:25.081Z,11.20
2019-03-16T17:10:50.672Z,10.37
2019-03-16T17:13:20.178Z,11.07
2019-03-16T17:15:45.884Z,10.63
2019-03-16T17:18:12.684Z,10.37
2019-03-16T17:20:38.434Z,10.50
2019-03-16T17:23:04.992Z,11.17
2019-03-16T17:25:30.607Z,10.20
2019-03-16T17:27:56.151Z,9.23
2019-03-16T17:30:23.607Z,9.93
2019-03-16T17:32:54.453Z,9.57
2019-03-16T17:35:20.527Z,8.90
2019-03-16T17:37:46.152Z,8.87
2019-03-16T17:40:14.676Z,9.20
2019-03-16T17:42:40.237Z,7.93
2019-03-16T17:45:07.200Z,8.00
2019-03-16T17:47:33.278Z,8.80
2019-03-16T17:49:58.872Z,7.83
2019-03-16T17:52:24.864Z,8.03
2019-03-16T17:54:50.398Z,8.30
2019-03-16T17:57:18.095Z,7.57
2019-03-16T17:59:43.848Z,8.57
2019-03-16T18:02:09.471Z,7.70
2019-03-16T18:04:35.102Z,8.50
2019-03-16T18:07:00.656Z,8.40
2019-03-16T18:09:26.292Z,7.67
2019-03-16T18:11:51.971Z,8.67
2019-03-16T18:14:17.717Z,8.17
2019-03-16T18:16:43.275Z,9.03
2019-03-16T18:19:08.838Z,8.47
2019-03-16T18:21:35.421Z,9.00
2019-03-16T18:24:01.054Z,7.87
2019-03-16T18:26:26.629Z,8.00
2019-03-16T18:28:52.268Z,7.70
2019-03-16T18:31:17.805Z,7.77
2019-03-16T18:33:43.344Z,7.97
2019-03-16T18:36:11.393Z,7.80
2019-03-16T18:38:37.355Z,7.70
2019-03-16T18:41:02.938Z,7.97
2019-03-16T18:43:28.610Z,8.10
2019-03-16T18:45:54.300Z,7.70
2019-03-16T18:48:20.074Z,7.00
2019-03-16T18:50:45.643Z,6.50
2019-03-16T18:53:11.219Z,6.33
2019-03-16T18:55:36.775Z,6.80
2019-03-16T18:58:02.596Z,6.30
2019-03-16T19:00:28.179Z,7.50
2019-03-16T19:02:53.782Z,7.80
2019-03-16T19:05:19.409Z,7.00
2019-03-16T19:07:45.463Z,7.23
2019-03-16T19:10:12.187Z,5.80
2019-03-16T19:12:39.139Z,6.20
2019-03-16T19:15:09.831Z,6.00
2019-03-16T19:17:35.401Z,5.50
2019-03-16T19:20:01.194Z,5.83
2019-03-16T19:22:26.797Z,6.63
2019-03-16T19:24:52.548Z,4.60
2019-03-16T19:27:19.252Z,5.67
2019-03-16T19:29:45.109Z,6.50
2019-03-16T19:32:12.651Z,5.00
2019-03-16T19:34:38.182Z,4.37
2019-03-16T19:37:04.140Z,3.97
2019-03-16T19:39:29.693Z,4.40
2019-03-16T19:41:55.727Z,4.10
2019-03-16T19:44:21.337Z,4.07
2019-03-16T19:46:46.945Z,3.70
2019-03-16T19:49:12.551Z,4.47
2019-03-16T19:51:38.205Z,4.90
2019-03-16T19:54:06.109Z,3.73
2019-03-16T19:56:31.960Z,3.90
2019-03-16T19:59:00.934Z,3.60
2019-03-16T20:01:25.441Z,3.60
2019-03-16T20:03:51.744Z,4.17
2019-03-16T20:06:25.719Z,4.37
2019-03-16T20:08:49.470Z,4.40
2019-03-16T20:11:17.473Z,3.53
2019-03-16T20:13:43.014Z,4.13
2019-03-16T20:16:08.698Z,3.40
2019-03-16T20:18:34.213Z,3.53
2019-03-16T20:21:03.153Z,3.80
2019-03-16T20:23:28.976Z,3.43
2019-03-16T20:25:54.780Z,3.50
2019-03-16T20:28:25.296Z,3.47
2019-03-16T20:30:50.851Z,3.90
2019-03-16T20:33:19.201Z,3.50
2019-03-16T20:35:47.087Z,3.53
2019-03-16T20:38:13.628Z,3.40
2019-03-16T20:40:39.359Z,3.17
2019-03-16T20:43:05.062Z,3.80
2019-03-16T20:45:33.541Z,3.80
2019-03-16T20:48:01.385Z,3.40
2019-03-16T20:50:27.004Z,3.67
2019-03-16T20:52:52.639Z,3.43
2019-03-16T20:55:18.190Z,3.57
2019-03-16T20:57:44.356Z,2.73
2019-03-16T21:00:13.687Z,3.50
2019-03-16T21:02:39.241Z,3.10
2019-03-16T21:05:06.358Z,3.53
2019-03-16T21:07:32.637Z,3.63
2019-03-16T21:10:00.452Z,3.50
2019-03-16T21:12:27.362Z,3.23
2019-03-16T21:14:53.005Z,2.93
2019-03-16T21:17:22.381Z,3.33
2019-03-16T21:19:47.940Z,3.70
2019-03-16T21:22:20.195Z,3.37
2019-03-16T21:24:45.860Z,3.70
2019-03-16T21:27:14.428Z,3.23
2019-03-16T21:29:45.752Z,3.40
2019-03-16T21:32:11.740Z,3.40
2019-03-16T21:34:39.504Z,3.80
2019-03-16T21:37:07.534Z,3.87
2019-03-16T21:39:42.089Z,3.63
2019-03-16T21:42:07.630Z,2.87
2019-03-16T21:44:33.660Z,3.67
2019-03-16T21:47:00.537Z,3.53
2019-03-16T21:49:28.063Z,3.30
2019-03-16T21:52:03.038Z,3.00
2019-03-16T21:54:26.308Z,2.90
2019-03-16T21:56:51.881Z,2.90
2019-03-16T21:59:17.663Z,12.00
2019-03-16T22:01:44.247Z,3.33
2019-03-16T22:04:10.424Z,3.00
2019-03-16T22:06:36.004Z,3.13
2019-03-16T22:09:05.291Z,3.10
2019-03-16T22:11:33.677Z,3.20
2019-03-16T22:14:01.698Z,3.70
2019-03-16T22:16:29.998Z,3.47
2019-03-16T22:18:55.544Z,3.07
2019-03-16T22:21:24.156Z,3.73
2019-03-16T22:23:49.714Z,4.10
2019-03-16T22:26:22.118Z,3.90
2019-03-16T22:28:47.785Z,4.90
2019-03-16T22:31:13.580Z,5.13
2019-03-16T22:33:39.381Z,7.40
2019-03-16T22:36:05.336Z,5.37
2019-03-16T22:38:31.222Z,4.90
2019-03-16T22:40:58.039Z,4.43
2019-03-16T22:43:23.649Z,4.70
2019-03-16T22:45:49.675Z,3.90
2019-03-16T22:48:15.516Z,4.30
2019-03-16T22:50:41.434Z,4.20
2019-03-16T22:53:09.867Z,4.80
2019-03-16T22:55:36.395Z,4.80
2019-03-16T22:58:02.151Z,4.20
2019-03-16T23:00:29.785Z,4.60
2019-03-16T23:03:02.116Z,3.90
2019-03-16T23:05:29.795Z,3.70
2019-03-16T23:07:58.179Z,4.23
2019-03-16T23:10:23.697Z,4.03
2019-03-16T23:12:51.066Z,3.63
2019-03-16T23:15:16.773Z,4.73
2019-03-16T23:17:42.307Z,4.27
2019-03-16T23:20:08.499Z,5.50
2019-03-16T23:22:35.301Z,5.50
2019-03-16T23:25:05.999Z,5.07
2019-03-16T23:27:31.718Z,4.97
2019-03-16T23:29:57.235Z,5.37
2019-03-16T23:32:22.937Z,5.73
2019-03-16T23:34:49.659Z,3.77
2019-03-16T23:37:15.213Z,4.77
2019-03-16T23:39:41.437Z,3.50
2019-03-16T23:42:07.086Z,4.10
2019-03-16T23:44:34.553Z,3.83
2019-03-16T23:47:00.201Z,4.23
2019-03-16T23:49:26.980Z,4.80
2019-03-16T23:51:52.778Z,4.80
2019-03-16T23:54:18.383Z,4.67
2019-03-16T23:56:43.943Z,5.27
2019-03-16T23:59:09.589Z,4.50
